sensor_id;sensor_type;location;lat;lon;timestamp;P1;P2;P0
61913;PMS5003;50095;53.336;-1.488;2022-07-24T00:01:17;9;7;
61913;PMS5003;50095;53.336;-1.488;2022-07-24T00:03:45;8;8;
61913;PMS5003;50095;53.336;-1.488;2022-07-24T00:06:13;9;9;
61913;PMS5003;50095;53.336;-1.488;2022-07-24T00:08:40;8;7;
61913;PMS5003;50095;53.336;-1.488;2022-07-24T00:11:08;7;7;
61913;PMS5003;50095;53.336;-1.488;2022-07-24T00:13:35;9;9;
61913;PMS5003;50095;53.336;-1.488;2022-07-24T00:16:04;8;8;
61913;PMS5003;50095;53.336;-1.488;2022-07-24T00:18:32;6;5;
61913;PMS5003;50095;53.336;-1.488;2022-07-24T00:21:00;8;8;
61913;PMS5003;50095;53.336;-1.488;2022-07-24T00:23:27;7;5;
61913;PMS5003;50095;53.336;-1.488;2022-07-24T00:25:55;7;7;
61913;PMS5003;50095;53.336;-1.488;2022-07-24T00:28:22;6;6;
61913;PMS5003;50095;53.336;-1.488;2022-07-24T00:30:51;8;7;
61913;PMS5003;50095;53.336;-1.488;2022-07-24T00:33:19;10;8;
61913;PMS5003;50095;53.336;-1.488;2022-07-24T00:35:46;7;7;
61913;PMS5003;50095;53.336;-1.488;2022-07-24T00:38:14;9;9;
61913;PMS5003;50095;53.336;-1.488;2022-07-24T00:40:41;7;7;
61913;PMS5003;50095;53.336;-1.488;2022-07-24T00:43:09;7;6;
61913;PMS5003;50095;53.336;-1.488;2022-07-24T00:45:36;7;7;
61913;PMS5003;50095;53.336;-1.488;2022-07-24T00:48:04;5;5;
61913;PMS5003;50095;53.336;-1.488;2022-07-24T00:50:32;6;6;
61913;PMS5003;50095;53.336;-1.488;2022-07-24T00:53:00;6;6;
61913;PMS5003;50095;53.336;-1.488;2022-07-24T00:55:29;12;10;
61913;PMS5003;50095;53.336;-1.488;2022-07-24T00:57:56;8;8;
61913;PMS5003;50095;53.336;-1.488;2022-07-24T01:00:23;7;7;
61913;PMS5003;50095;53.336;-1.488;2022-07-24T01:02:51;8;8;
61913;PMS5003;50095;53.336;-1.488;2022-07-24T01:05:19;5;5;
61913;PMS5003;50095;53.336;-1.488;2022-07-24T01:07:46;7;6;
61913;PMS5003;50095;53.336;-1.488;2022-07-24T01:10:13;9;9;
61913;PMS5003;50095;53.336;-1.488;2022-07-24T01:12:41;7;7;
61913;PMS5003;50095;53.336;-1.488;2022-07-24T01:15:09;6;6;
61913;PMS5003;50095;53.336;-1.488;2022-07-24T01:17:39;5;5;
61913;PMS5003;50095;53.336;-1.488;2022-07-24T01:20:08;8;7;
61913;PMS5003;50095;53.336;-1.488;2022-07-24T01:22:37;8;7;
61913;PMS5003;50095;53.336;-1.488;2022-07-24T01:25:05;9;9;
61913;PMS5003;50095;53.336;-1.488;2022-07-24T01:27:32;4;4;
61913;PMS5003;50095;53.336;-1.488;2022-07-24T01:30:00;8;8;
61913;PMS5003;50095;53.336;-1.488;2022-07-24T01:32:27;9;8;
61913;PMS5003;50095;53.336;-1.488;2022-07-24T01:34:54;6;6;
61913;PMS5003;50095;53.336;-1.488;2022-07-24T01:37:23;10;9;
61913;PMS5003;50095;53.336;-1.488;2022-07-24T01:39:50;5;5;
61913;PMS5003;50095;53.336;-1.488;2022-07-24T01:42:17;8;8;
61913;PMS5003;50095;53.336;-1.488;2022-07-24T01:44:45;6;6;
61913;PMS5003;50095;53.336;-1.488;2022-07-24T01:47:12;6;6;
61913;PMS5003;50095;53.336;-1.488;2022-07-24T01:49:40;5;5;
61913;PMS5003;50095;53.336;-1.488;2022-07-24T01:52:07;7;7;
61913;PMS5003;50095;53.336;-1.488;2022-07-24T01:54:35;6;6;
61913;PMS5003;50095;53.336;-1.488;2022-07-24T01:57:02;10;9;
61913;PMS5003;50095;53.336;-1.488;2022-07-24T01:59:30;9;9;
61913;PMS5003;50095;53.336;-1.488;2022-07-24T02:01:58;7;7;
61913;PMS5003;50095;53.336;-1.488;2022-07-24T02:04:25;8;8;
61913;PMS5003;50095;53.336;-1.488;2022-07-24T02:06:53;8;8;
61913;PMS5003;50095;53.336;-1.488;2022-07-24T02:09:20;6;6;
61913;PMS5003;50095;53.336;-1.488;2022-07-24T02:11:47;7;7;
61913;PMS5003;50095;53.336;-1.488;2022-07-24T02:14:15;7;7;
61913;PMS5003;50095;53.336;-1.488;2022-07-24T02:16:43;9;9;
61913;PMS5003;50095;53.336;-1.488;2022-07-24T02:19:10;7;7;
61913;PMS5003;50095;53.336;-1.488;2022-07-24T02:21:38;8;7;
61913;PMS5003;50095;53.336;-1.488;2022-07-24T02:24:05;8;8;
61913;PMS5003;50095;53.336;-1.488;2022-07-24T02:26:33;8;8;
61913;PMS5003;50095;53.336;-1.488;2022-07-24T02:29:00;7;7;
61913;PMS5003;50095;53.336;-1.488;2022-07-24T02:31:28;9;7;
61913;PMS5003;50095;53.336;-1.488;2022-07-24T02:33:55;9;8;
61913;PMS5003;50095;53.336;-1.488;2022-07-24T02:36:23;9;9;
61913;PMS5003;50095;53.336;-1.488;2022-07-24T02:38:50;8;8;
61913;PMS5003;50095;53.336;-1.488;2022-07-24T02:41:18;9;9;
61913;PMS5003;50095;53.336;-1.488;2022-07-24T02:43:46;11;10;
61913;PMS5003;50095;53.336;-1.488;2022-07-24T02:46:13;7;7;
61913;PMS5003;50095;53.336;-1.488;2022-07-24T02:48:41;6;6;
61913;PMS5003;50095;53.336;-1.488;2022-07-24T02:51:08;8;6;
61913;PMS5003;50095;53.336;-1.488;2022-07-24T02:53:36;8;7;
61913;PMS5003;50095;53.336;-1.488;2022-07-24T02:56:04;6;6;
61913;PMS5003;50095;53.336;-1.488;2022-07-24T02:58:32;13;13;
61913;PMS5003;50095;53.336;-1.488;2022-07-24T03:00:59;5;5;
61913;PMS5003;50095;53.336;-1.488;2022-07-24T03:03:27;7;6;
61913;PMS5003;50095;53.336;-1.488;2022-07-24T03:05:54;11;11;
61913;PMS5003;50095;53.336;-1.488;2022-07-24T03:08:22;6;6;
61913;PMS5003;50095;53.336;-1.488;2022-07-24T03:10:49;7;5;
61913;PMS5003;50095;53.336;-1.488;2022-07-24T03:13:17;6;6;
61913;PMS5003;50095;53.336;-1.488;2022-07-24T03:15:44;5;5;
61913;PMS5003;50095;53.336;-1.488;2022-07-24T03:18:12;6;5;
61913;PMS5003;50095;53.336;-1.488;2022-07-24T03:20:39;6;6;
61913;PMS5003;50095;53.336;-1.488;2022-07-24T03:23:07;8;8;
61913;PMS5003;50095;53.336;-1.488;2022-07-24T03:25:35;7;7;
61913;PMS5003;50095;53.336;-1.488;2022-07-24T03:28:02;7;7;
61913;PMS5003;50095;53.336;-1.488;2022-07-24T03:30:30;7;6;
61913;PMS5003;50095;53.336;-1.488;2022-07-24T03:32:58;7;6;
61913;PMS5003;50095;53.336;-1.488;2022-07-24T03:35:25;6;5;
61913;PMS5003;50095;53.336;-1.488;2022-07-24T03:37:53;5;5;
61913;PMS5003;50095;53.336;-1.488;2022-07-24T03:40:20;6;6;
61913;PMS5003;50095;53.336;-1.488;2022-07-24T03:42:48;5;5;
61913;PMS5003;50095;53.336;-1.488;2022-07-24T03:45:15;7;7;
61913;PMS5003;50095;53.336;-1.488;2022-07-24T03:47:43;6;6;
61913;PMS5003;50095;53.336;-1.488;2022-07-24T03:50:11;4;4;
61913;PMS5003;50095;53.336;-1.488;2022-07-24T03:52:38;7;6;
61913;PMS5003;50095;53.336;-1.488;2022-07-24T03:55:06;4;3;
61913;PMS5003;50095;53.336;-1.488;2022-07-24T03:57:34;5;5;
61913;PMS5003;50095;53.336;-1.488;2022-07-24T04:00:03;3;3;
61913;PMS5003;50095;53.336;-1.488;2022-07-24T04:02:30;5;5;
61913;PMS5003;50095;53.336;-1.488;2022-07-24T04:04:58;6;5;
61913;PMS5003;50095;53.336;-1.488;2022-07-24T04:07:25;4;4;
61913;PMS5003;50095;53.336;-1.488;2022-07-24T04:09:53;7;6;
61913;PMS5003;50095;53.336;-1.488;2022-07-24T04:12:21;4;4;
61913;PMS5003;50095;53.336;-1.488;2022-07-24T04:14:48;5;4;
61913;PMS5003;50095;53.336;-1.488;2022-07-24T04:17:16;5;5;
61913;PMS5003;50095;53.336;-1.488;2022-07-24T04:19:43;4;4;
61913;PMS5003;50095;53.336;-1.488;2022-07-24T04:22:11;5;4;
61913;PMS5003;50095;53.336;-1.488;2022-07-24T04:24:39;4;4;
61913;PMS5003;50095;53.336;-1.488;2022-07-24T04:27:06;6;5;
61913;PMS5003;50095;53.336;-1.488;2022-07-24T04:29:34;5;5;
61913;PMS5003;50095;53.336;-1.488;2022-07-24T04:32:01;4;4;
61913;PMS5003;50095;53.336;-1.488;2022-07-24T04:34:29;4;4;
61913;PMS5003;50095;53.336;-1.488;2022-07-24T04:36:56;3;3;
61913;PMS5003;50095;53.336;-1.488;2022-07-24T04:39:24;4;4;
61913;PMS5003;50095;53.336;-1.488;2022-07-24T04:41:51;4;4;
61913;PMS5003;50095;53.336;-1.488;2022-07-24T04:44:19;6;6;
61913;PMS5003;50095;53.336;-1.488;2022-07-24T04:46:46;2;2;
61913;PMS5003;50095;53.336;-1.488;2022-07-24T04:49:14;5;5;
61913;PMS5003;50095;53.336;-1.488;2022-07-24T04:51:42;3;3;
61913;PMS5003;50095;53.336;-1.488;2022-07-24T04:54:09;3;3;
61913;PMS5003;50095;53.336;-1.488;2022-07-24T04:56:37;5;5;
61913;PMS5003;50095;53.336;-1.488;2022-07-24T04:59:04;5;5;
61913;PMS5003;50095;53.336;-1.488;2022-07-24T05:01:32;3;3;
61913;PMS5003;50095;53.336;-1.488;2022-07-24T05:03:59;5;5;
61913;PMS5003;50095;53.336;-1.488;2022-07-24T05:06:27;4;4;
61913;PMS5003;50095;53.336;-1.488;2022-07-24T05:08:54;3;3;
61913;PMS5003;50095;53.336;-1.488;2022-07-24T05:11:22;4;4;
61913;PMS5003;50095;53.336;-1.488;2022-07-24T05:13:50;5;3;
61913;PMS5003;50095;53.336;-1.488;2022-07-24T05:16:17;3;3;
61913;PMS5003;50095;53.336;-1.488;2022-07-24T05:18:45;4;4;
61913;PMS5003;50095;53.336;-1.488;2022-07-24T05:21:12;4;4;
61913;PMS5003;50095;53.336;-1.488;2022-07-24T05:23:40;3;3;
61913;PMS5003;50095;53.336;-1.488;2022-07-24T05:26:07;2;2;
61913;PMS5003;50095;53.336;-1.488;2022-07-24T05:28:35;1;1;
61913;PMS5003;50095;53.336;-1.488;2022-07-24T05:31:02;4;4;
61913;PMS5003;50095;53.336;-1.488;2022-07-24T05:33:30;3;3;
61913;PMS5003;50095;53.336;-1.488;2022-07-24T05:35:58;3;3;
61913;PMS5003;50095;53.336;-1.488;2022-07-24T05:38:25;4;4;
61913;PMS5003;50095;53.336;-1.488;2022-07-24T05:40:53;4;4;
61913;PMS5003;50095;53.336;-1.488;2022-07-24T05:43:20;3;3;
61913;PMS5003;50095;53.336;-1.488;2022-07-24T05:45:48;1;1;
61913;PMS5003;50095;53.336;-1.488;2022-07-24T05:48:16;3;3;
61913;PMS5003;50095;53.336;-1.488;2022-07-24T05:50:43;3;2;
61913;PMS5003;50095;53.336;-1.488;2022-07-24T05:53:11;3;3;
61913;PMS5003;50095;53.336;-1.488;2022-07-24T05:55:39;3;3;
61913;PMS5003;50095;53.336;-1.488;2022-07-24T05:58:08;3;3;
61913;PMS5003;50095;53.336;-1.488;2022-07-24T06:00:35;2;2;
61913;PMS5003;50095;53.336;-1.488;2022-07-24T06:03:03;1;1;
61913;PMS5003;50095;53.336;-1.488;2022-07-24T06:05:30;2;2;
61913;PMS5003;50095;53.336;-1.488;2022-07-24T06:07:58;2;2;
61913;PMS5003;50095;53.336;-1.488;2022-07-24T06:10:25;3;3;
61913;PMS5003;50095;53.336;-1.488;2022-07-24T06:12:53;3;3;
61913;PMS5003;50095;53.336;-1.488;2022-07-24T06:15:20;4;4;
61913;PMS5003;50095;53.336;-1.488;2022-07-24T06:17:48;1;1;
61913;PMS5003;50095;53.336;-1.488;2022-07-24T06:20:16;2;2;
61913;PMS5003;50095;53.336;-1.488;2022-07-24T06:22:43;1;1;
61913;PMS5003;50095;53.336;-1.488;2022-07-24T06:25:11;0;0;
61913;PMS5003;50095;53.336;-1.488;2022-07-24T06:27:39;4;4;
61913;PMS5003;50095;53.336;-1.488;2022-07-24T06:30:12;4;4;
61913;PMS5003;50095;53.336;-1.488;2022-07-24T06:32:39;1;1;
61913;PMS5003;50095;53.336;-1.488;2022-07-24T06:35:07;2;2;
61913;PMS5003;50095;53.336;-1.488;2022-07-24T06:37:35;2;2;
61913;PMS5003;50095;53.336;-1.488;2022-07-24T06:40:02;0;0;
61913;PMS5003;50095;53.336;-1.488;2022-07-24T06:42:31;2;2;
61913;PMS5003;50095;53.336;-1.488;2022-07-24T06:44:58;1;1;
61913;PMS5003;50095;53.336;-1.488;2022-07-24T06:47:26;0;0;
61913;PMS5003;50095;53.336;-1.488;2022-07-24T06:49:53;2;2;
61913;PMS5003;50095;53.336;-1.488;2022-07-24T06:52:21;2;2;
61913;PMS5003;50095;53.336;-1.488;2022-07-24T06:54:49;4;4;
61913;PMS5003;50095;53.336;-1.488;2022-07-24T06:57:17;2;2;
61913;PMS5003;50095;53.336;-1.488;2022-07-24T06:59:44;2;2;
61913;PMS5003;50095;53.336;-1.488;2022-07-24T07:02:12;1;1;
61913;PMS5003;50095;53.336;-1.488;2022-07-24T07:04:39;3;3;
61913;PMS5003;50095;53.336;-1.488;2022-07-24T07:07:07;1;1;
61913;PMS5003;50095;53.336;-1.488;2022-07-24T07:09:35;2;2;
61913;PMS5003;50095;53.336;-1.488;2022-07-24T07:12:02;1;1;
61913;PMS5003;50095;53.336;-1.488;2022-07-24T07:14:30;1;1;
61913;PMS5003;50095;53.336;-1.488;2022-07-24T07:16:57;2;1;
61913;PMS5003;50095;53.336;-1.488;2022-07-24T07:19:25;2;2;
61913;PMS5003;50095;53.336;-1.488;2022-07-24T07:21:52;3;2;
61913;PMS5003;50095;53.336;-1.488;2022-07-24T07:24:20;1;1;
61913;PMS5003;50095;53.336;-1.488;2022-07-24T07:26:48;1;1;
61913;PMS5003;50095;53.336;-1.488;2022-07-24T07:29:15;1;1;
61913;PMS5003;50095;53.336;-1.488;2022-07-24T07:31:43;2;2;
61913;PMS5003;50095;53.336;-1.488;2022-07-24T07:34:10;0;0;
61913;PMS5003;50095;53.336;-1.488;2022-07-24T07:36:38;2;2;
61913;PMS5003;50095;53.336;-1.488;2022-07-24T07:39:05;2;2;
61913;PMS5003;50095;53.336;-1.488;2022-07-24T07:41:33;1;1;
61913;PMS5003;50095;53.336;-1.488;2022-07-24T07:44:00;3;3;
61913;PMS5003;50095;53.336;-1.488;2022-07-24T07:46:28;1;1;
61913;PMS5003;50095;53.336;-1.488;2022-07-24T07:48:56;1;1;
61913;PMS5003;50095;53.336;-1.488;2022-07-24T07:51:24;2;1;
61913;PMS5003;50095;53.336;-1.488;2022-07-24T07:53:51;1;1;
61913;PMS5003;50095;53.336;-1.488;2022-07-24T07:56:19;2;2;
61913;PMS5003;50095;53.336;-1.488;2022-07-24T07:58:47;1;1;
61913;PMS5003;50095;53.336;-1.488;2022-07-24T08:01:14;1;1;
61913;PMS5003;50095;53.336;-1.488;2022-07-24T08:03:42;1;1;
61913;PMS5003;50095;53.336;-1.488;2022-07-24T08:06:10;1;1;
61913;PMS5003;50095;53.336;-1.488;2022-07-24T08:08:37;0;0;
61913;PMS5003;50095;53.336;-1.488;2022-07-24T08:11:05;1;1;
61913;PMS5003;50095;53.336;-1.488;2022-07-24T08:13:33;1;1;
61913;PMS5003;50095;53.336;-1.488;2022-07-24T08:16:00;0;0;
61913;PMS5003;50095;53.336;-1.488;2022-07-24T08:18:28;2;2;
61913;PMS5003;50095;53.336;-1.488;2022-07-24T08:20:55;1;1;
61913;PMS5003;50095;53.336;-1.488;2022-07-24T08:23:23;1;1;
61913;PMS5003;50095;53.336;-1.488;2022-07-24T08:25:51;3;3;
61913;PMS5003;50095;53.336;-1.488;2022-07-24T08:28:19;1;1;
61913;PMS5003;50095;53.336;-1.488;2022-07-24T08:30:47;1;1;
61913;PMS5003;50095;53.336;-1.488;2022-07-24T08:33:14;1;1;
61913;PMS5003;50095;53.336;-1.488;2022-07-24T08:35:42;1;1;
61913;PMS5003;50095;53.336;-1.488;2022-07-24T08:38:09;1;1;
61913;PMS5003;50095;53.336;-1.488;2022-07-24T08:40:38;1;1;
61913;PMS5003;50095;53.336;-1.488;2022-07-24T08:43:06;1;1;
61913;PMS5003;50095;53.336;-1.488;2022-07-24T08:45:36;1;1;
61913;PMS5003;50095;53.336;-1.488;2022-07-24T08:48:04;1;1;
61913;PMS5003;50095;53.336;-1.488;2022-07-24T08:50:34;2;2;
61913;PMS5003;50095;53.336;-1.488;2022-07-24T08:53:03;2;2;
61913;PMS5003;50095;53.336;-1.488;2022-07-24T08:55:31;2;2;
61913;PMS5003;50095;53.336;-1.488;2022-07-24T08:57:59;3;2;
61913;PMS5003;50095;53.336;-1.488;2022-07-24T09:00:29;1;1;
61913;PMS5003;50095;53.336;-1.488;2022-07-24T09:02:57;1;1;
61913;PMS5003;50095;53.336;-1.488;2022-07-24T09:05:25;1;1;
61913;PMS5003;50095;53.336;-1.488;2022-07-24T09:08:05;1;1;
61913;PMS5003;50095;53.336;-1.488;2022-07-24T09:10:33;2;2;
61913;PMS5003;50095;53.336;-1.488;2022-07-24T09:13:11;0;0;
61913;PMS5003;50095;53.336;-1.488;2022-07-24T09:15:43;2;2;
61913;PMS5003;50095;53.336;-1.488;2022-07-24T09:18:24;1;1;
61913;PMS5003;50095;53.336;-1.488;2022-07-24T09:20:53;2;2;
61913;PMS5003;50095;53.336;-1.488;2022-07-24T09:23:21;1;1;
61913;PMS5003;50095;53.336;-1.488;2022-07-24T09:25:51;1;1;
61913;PMS5003;50095;53.336;-1.488;2022-07-24T09:28:19;1;1;
61913;PMS5003;50095;53.336;-1.488;2022-07-24T09:30:47;2;2;
61913;PMS5003;50095;53.336;-1.488;2022-07-24T09:33:16;2;2;
61913;PMS5003;50095;53.336;-1.488;2022-07-24T09:35:46;2;2;
61913;PMS5003;50095;53.336;-1.488;2022-07-24T09:38:16;2;2;
61913;PMS5003;50095;53.336;-1.488;2022-07-24T09:40:45;2;1;
61913;PMS5003;50095;53.336;-1.488;2022-07-24T09:43:16;2;2;
61913;PMS5003;50095;53.336;-1.488;2022-07-24T09:45:51;2;2;
61913;PMS5003;50095;53.336;-1.488;2022-07-24T09:48:22;6;3;
61913;PMS5003;50095;53.336;-1.488;2022-07-24T09:50:51;4;4;
61913;PMS5003;50095;53.336;-1.488;2022-07-24T09:53:22;5;4;
61913;PMS5003;50095;53.336;-1.488;2022-07-24T09:56:08;6;4;
61913;PMS5003;50095;53.336;-1.488;2022-07-24T09:58:37;18;17;
61913;PMS5003;50095;53.336;-1.488;2022-07-24T10:01:06;11;11;
61913;PMS5003;50095;53.336;-1.488;2022-07-24T10:03:36;15;14;
61913;PMS5003;50095;53.336;-1.488;2022-07-24T10:06:06;28;28;
61913;PMS5003;50095;53.336;-1.488;2022-07-24T10:08:36;28;28;
61913;PMS5003;50095;53.336;-1.488;2022-07-24T10:11:05;52;51;
61913;PMS5003;50095;53.336;-1.488;2022-07-24T10:13:32;27;26;
61913;PMS5003;50095;53.336;-1.488;2022-07-24T10:16:16;38;36;
61913;PMS5003;50095;53.336;-1.488;2022-07-24T10:18:56;28;25;
61913;PMS5003;50095;53.336;-1.488;2022-07-24T10:21:26;27;24;
61913;PMS5003;50095;53.336;-1.488;2022-07-24T10:24:11;25;23;
61913;PMS5003;50095;53.336;-1.488;2022-07-24T10:26:52;23;22;
61913;PMS5003;50095;53.336;-1.488;2022-07-24T10:29:29;21;20;
61913;PMS5003;50095;53.336;-1.488;2022-07-24T10:32:01;14;14;
61913;PMS5003;50095;53.336;-1.488;2022-07-24T10:34:31;18;17;
61913;PMS5003;50095;53.336;-1.488;2022-07-24T10:37:06;14;14;
61913;PMS5003;50095;53.336;-1.488;2022-07-24T10:39:42;17;13;
61913;PMS5003;50095;53.336;-1.488;2022-07-24T10:42:16;11;11;
61913;PMS5003;50095;53.336;-1.488;2022-07-24T10:44:44;8;8;
61913;PMS5003;50095;53.336;-1.488;2022-07-24T10:47:12;8;8;
61913;PMS5003;50095;53.336;-1.488;2022-07-24T10:49:41;7;7;
61913;PMS5003;50095;53.336;-1.488;2022-07-24T10:52:10;7;7;
61913;PMS5003;50095;53.336;-1.488;2022-07-24T10:54:47;6;6;
61913;PMS5003;50095;53.336;-1.488;2022-07-24T10:57:14;5;5;
61913;PMS5003;50095;53.336;-1.488;2022-07-24T10:59:42;4;4;
61913;PMS5003;50095;53.336;-1.488;2022-07-24T11:02:26;5;5;
61913;PMS5003;50095;53.336;-1.488;2022-07-24T11:05:28;8;8;
61913;PMS5003;50095;53.336;-1.488;2022-07-24T11:08:30;5;5;
61913;PMS5003;50095;53.336;-1.488;2022-07-24T11:10:59;6;6;
61913;PMS5003;50095;53.336;-1.488;2022-07-24T11:13:40;4;4;
61913;PMS5003;50095;53.336;-1.488;2022-07-24T11:16:26;5;5;
61913;PMS5003;50095;53.336;-1.488;2022-07-24T11:19:28;5;4;
61913;PMS5003;50095;53.336;-1.488;2022-07-24T11:22:11;6;5;
61913;PMS5003;50095;53.336;-1.488;2022-07-24T11:24:41;4;3;
61913;PMS5003;50095;53.336;-1.488;2022-07-24T11:28:13;7;4;
61913;PMS5003;50095;53.336;-1.488;2022-07-24T11:30:41;4;4;
61913;PMS5003;50095;53.336;-1.488;2022-07-24T11:33:10;5;5;
61913;PMS5003;50095;53.336;-1.488;2022-07-24T11:35:38;7;6;
61913;PMS5003;50095;53.336;-1.488;2022-07-24T11:38:06;4;4;
61913;PMS5003;50095;53.336;-1.488;2022-07-24T11:40:35;4;4;
61913;PMS5003;50095;53.336;-1.488;2022-07-24T11:43:03;4;4;
61913;PMS5003;50095;53.336;-1.488;2022-07-24T11:45:33;5;4;
61913;PMS5003;50095;53.336;-1.488;2022-07-24T11:48:00;5;3;
61913;PMS5003;50095;53.336;-1.488;2022-07-24T11:50:28;3;3;
61913;PMS5003;50095;53.336;-1.488;2022-07-24T11:52:55;4;4;
61913;PMS5003;50095;53.336;-1.488;2022-07-24T11:55:23;4;4;
61913;PMS5003;50095;53.336;-1.488;2022-07-24T11:57:52;4;4;
61913;PMS5003;50095;53.336;-1.488;2022-07-24T12:00:22;2;2;
61913;PMS5003;50095;53.336;-1.488;2022-07-24T12:02:52;3;3;
61913;PMS5003;50095;53.336;-1.488;2022-07-24T12:05:23;2;2;
61913;PMS5003;50095;53.336;-1.488;2022-07-24T12:07:52;2;2;
61913;PMS5003;50095;53.336;-1.488;2022-07-24T12:10:20;2;2;
61913;PMS5003;50095;53.336;-1.488;2022-07-24T12:12:49;4;4;
61913;PMS5003;50095;53.336;-1.488;2022-07-24T12:15:19;3;3;
61913;PMS5003;50095;53.336;-1.488;2022-07-24T12:17:56;3;2;
61913;PMS5003;50095;53.336;-1.488;2022-07-24T12:20:25;3;3;
61913;PMS5003;50095;53.336;-1.488;2022-07-24T12:22:55;2;2;
61913;PMS5003;50095;53.336;-1.488;2022-07-24T12:25:24;3;3;
61913;PMS5003;50095;53.336;-1.488;2022-07-24T12:28:01;4;4;
61913;PMS5003;50095;53.336;-1.488;2022-07-24T12:30:30;3;2;
61913;PMS5003;50095;53.336;-1.488;2022-07-24T12:33:00;2;2;
61913;PMS5003;50095;53.336;-1.488;2022-07-24T12:35:30;2;2;
61913;PMS5003;50095;53.336;-1.488;2022-07-24T12:37:58;3;3;
61913;PMS5003;50095;53.336;-1.488;2022-07-24T12:40:28;3;3;
61913;PMS5003;50095;53.336;-1.488;2022-07-24T12:42:58;6;5;
61913;PMS5003;50095;53.336;-1.488;2022-07-24T12:45:27;2;2;
61913;PMS5003;50095;53.336;-1.488;2022-07-24T12:48:16;1;1;
61913;PMS5003;50095;53.336;-1.488;2022-07-24T12:51:18;1;1;
61913;PMS5003;50095;53.336;-1.488;2022-07-24T12:53:45;2;2;
61913;PMS5003;50095;53.336;-1.488;2022-07-24T12:56:18;0;0;
61913;PMS5003;50095;53.336;-1.488;2022-07-24T12:58:48;2;2;
61913;PMS5003;50095;53.336;-1.488;2022-07-24T13:01:17;3;3;
61913;PMS5003;50095;53.336;-1.488;2022-07-24T13:03:49;3;3;
61913;PMS5003;50095;53.336;-1.488;2022-07-24T13:06:18;2;2;
61913;PMS5003;50095;53.336;-1.488;2022-07-24T13:08:45;1;1;
61913;PMS5003;50095;53.336;-1.488;2022-07-24T13:11:12;2;2;
61913;PMS5003;50095;53.336;-1.488;2022-07-24T13:13:40;3;3;
61913;PMS5003;50095;53.336;-1.488;2022-07-24T13:16:07;1;1;
61913;PMS5003;50095;53.336;-1.488;2022-07-24T13:18:35;1;1;
61913;PMS5003;50095;53.336;-1.488;2022-07-24T13:21:02;3;3;
61913;PMS5003;50095;53.336;-1.488;2022-07-24T13:23:30;3;3;
61913;PMS5003;50095;53.336;-1.488;2022-07-24T13:25:57;2;2;
61913;PMS5003;50095;53.336;-1.488;2022-07-24T13:28:25;1;1;
61913;PMS5003;50095;53.336;-1.488;2022-07-24T13:30:52;2;2;
61913;PMS5003;50095;53.336;-1.488;2022-07-24T13:33:20;1;1;
61913;PMS5003;50095;53.336;-1.488;2022-07-24T13:35:47;2;1;
61913;PMS5003;50095;53.336;-1.488;2022-07-24T13:38:15;3;3;
61913;PMS5003;50095;53.336;-1.488;2022-07-24T13:40:42;2;2;
61913;PMS5003;50095;53.336;-1.488;2022-07-24T13:43:10;2;2;
61913;PMS5003;50095;53.336;-1.488;2022-07-24T13:45:37;3;3;
61913;PMS5003;50095;53.336;-1.488;2022-07-24T13:48:05;1;1;
61913;PMS5003;50095;53.336;-1.488;2022-07-24T13:50:32;3;2;
61913;PMS5003;50095;53.336;-1.488;2022-07-24T13:53:00;2;2;
61913;PMS5003;50095;53.336;-1.488;2022-07-24T13:55:28;2;2;
61913;PMS5003;50095;53.336;-1.488;2022-07-24T13:57:57;3;3;
61913;PMS5003;50095;53.336;-1.488;2022-07-24T14:00:24;3;3;
61913;PMS5003;50095;53.336;-1.488;2022-07-24T14:02:52;4;4;
61913;PMS5003;50095;53.336;-1.488;2022-07-24T14:05:19;2;2;
61913;PMS5003;50095;53.336;-1.488;2022-07-24T14:07:47;4;3;
61913;PMS5003;50095;53.336;-1.488;2022-07-24T14:10:14;3;3;
61913;PMS5003;50095;53.336;-1.488;2022-07-24T14:12:41;3;3;
61913;PMS5003;50095;53.336;-1.488;2022-07-24T14:15:09;4;4;
61913;PMS5003;50095;53.336;-1.488;2022-07-24T14:17:38;4;3;
61913;PMS5003;50095;53.336;-1.488;2022-07-24T14:20:06;2;2;
61913;PMS5003;50095;53.336;-1.488;2022-07-24T14:22:35;3;3;
61913;PMS5003;50095;53.336;-1.488;2022-07-24T14:25:04;2;2;
61913;PMS5003;50095;53.336;-1.488;2022-07-24T14:27:33;2;2;
61913;PMS5003;50095;53.336;-1.488;2022-07-24T14:30:01;2;2;
61913;PMS5003;50095;53.336;-1.488;2022-07-24T14:32:29;1;1;
61913;PMS5003;50095;53.336;-1.488;2022-07-24T14:34:57;2;2;
61913;PMS5003;50095;53.336;-1.488;2022-07-24T14:37:24;3;3;
61913;PMS5003;50095;53.336;-1.488;2022-07-24T14:39:52;3;3;
61913;PMS5003;50095;53.336;-1.488;2022-07-24T14:42:19;4;4;
61913;PMS5003;50095;53.336;-1.488;2022-07-24T14:44:47;4;3;
61913;PMS5003;50095;53.336;-1.488;2022-07-24T14:47:15;3;3;
61913;PMS5003;50095;53.336;-1.488;2022-07-24T14:49:42;2;2;
61913;PMS5003;50095;53.336;-1.488;2022-07-24T14:52:09;4;4;
61913;PMS5003;50095;53.336;-1.488;2022-07-24T14:54:37;5;5;
61913;PMS5003;50095;53.336;-1.488;2022-07-24T14:57:05;4;3;
61913;PMS5003;50095;53.336;-1.488;2022-07-24T14:59:32;3;3;
61913;PMS5003;50095;53.336;-1.488;2022-07-24T15:02:00;2;2;
61913;PMS5003;50095;53.336;-1.488;2022-07-24T15:04:27;3;3;
61913;PMS5003;50095;53.336;-1.488;2022-07-24T15:06:55;5;3;
61913;PMS5003;50095;53.336;-1.488;2022-07-24T15:09:22;4;4;
61913;PMS5003;50095;53.336;-1.488;2022-07-24T15:11:49;3;3;
61913;PMS5003;50095;53.336;-1.488;2022-07-24T15:14:17;4;3;
61913;PMS5003;50095;53.336;-1.488;2022-07-24T15:16:44;3;3;
61913;PMS5003;50095;53.336;-1.488;2022-07-24T15:19:12;2;2;
61913;PMS5003;50095;53.336;-1.488;2022-07-24T15:21:39;3;3;
61913;PMS5003;50095;53.336;-1.488;2022-07-24T15:24:07;2;2;
61913;PMS5003;50095;53.336;-1.488;2022-07-24T15:26:35;3;3;
61913;PMS5003;50095;53.336;-1.488;2022-07-24T15:29:04;3;2;
61913;PMS5003;50095;53.336;-1.488;2022-07-24T15:31:32;2;2;
61913;PMS5003;50095;53.336;-1.488;2022-07-24T15:34:00;3;3;
61913;PMS5003;50095;53.336;-1.488;2022-07-24T15:36:28;2;2;
61913;PMS5003;50095;53.336;-1.488;2022-07-24T15:38:55;3;3;
61913;PMS5003;50095;53.336;-1.488;2022-07-24T15:41:23;4;4;
61913;PMS5003;50095;53.336;-1.488;2022-07-24T15:43:50;4;4;
61913;PMS5003;50095;53.336;-1.488;2022-07-24T15:46:18;3;2;
61913;PMS5003;50095;53.336;-1.488;2022-07-24T15:48:45;1;1;
61913;PMS5003;50095;53.336;-1.488;2022-07-24T15:51:13;2;2;
61913;PMS5003;50095;53.336;-1.488;2022-07-24T15:53:41;2;2;
61913;PMS5003;50095;53.336;-1.488;2022-07-24T15:56:08;3;2;
61913;PMS5003;50095;53.336;-1.488;2022-07-24T15:58:36;2;2;
61913;PMS5003;50095;53.336;-1.488;2022-07-24T16:01:03;3;3;
61913;PMS5003;50095;53.336;-1.488;2022-07-24T16:03:30;3;3;
61913;PMS5003;50095;53.336;-1.488;2022-07-24T16:05:59;5;5;
61913;PMS5003;50095;53.336;-1.488;2022-07-24T16:08:26;3;3;
61913;PMS5003;50095;53.336;-1.488;2022-07-24T16:10:53;6;5;
61913;PMS5003;50095;53.336;-1.488;2022-07-24T16:13:20;3;3;
61913;PMS5003;50095;53.336;-1.488;2022-07-24T16:15:49;3;3;
61913;PMS5003;50095;53.336;-1.488;2022-07-24T16:18:16;5;4;
61913;PMS5003;50095;53.336;-1.488;2022-07-24T16:20:44;4;4;
61913;PMS5003;50095;53.336;-1.488;2022-07-24T16:23:11;3;3;
61913;PMS5003;50095;53.336;-1.488;2022-07-24T16:25:39;3;2;
61913;PMS5003;50095;53.336;-1.488;2022-07-24T16:28:06;4;4;
61913;PMS5003;50095;53.336;-1.488;2022-07-24T16:30:34;4;3;
61913;PMS5003;50095;53.336;-1.488;2022-07-24T16:33:01;6;6;
61913;PMS5003;50095;53.336;-1.488;2022-07-24T16:35:29;2;2;
61913;PMS5003;50095;53.336;-1.488;2022-07-24T16:37:56;4;4;
61913;PMS5003;50095;53.336;-1.488;2022-07-24T16:40:24;5;4;
61913;PMS5003;50095;53.336;-1.488;2022-07-24T16:42:52;5;5;
61913;PMS5003;50095;53.336;-1.488;2022-07-24T16:45:20;4;4;